createdAt,value
2022-10-14T00:02:55.792Z,5.13
2022-10-14T00:06:04.695Z,4.99
2022-10-14T00:09:12.291Z,4.92
2022-10-14T00:12:18.379Z,4.93
2022-10-14T00:15:24.443Z,4.99
2022-10-14T00:18:30.679Z,5.05
2022-10-14T00:21:35.941Z,5.05
2022-10-14T00:24:41.912Z,5.05
2022-10-14T00:27:47.976Z,5.05
2022-10-14T00:30:58.372Z,5.08
2022-10-14T00:34:04.630Z,5.06
2022-10-14T00:37:10.963Z,5.03
2022-10-14T00:40:15.574Z,5.04
2022-10-14T00:43:22.836Z,5.05
2022-10-14T00:46:31.378Z,5.10
2022-10-14T00:49:42.204Z,5.13
2022-10-14T00:52:48.483Z,5.08
2022-10-14T00:55:54.690Z,5.03
2022-10-14T00:59:01.928Z,5.03
2022-10-14T01:02:08.343Z,5.06
2022-10-14T01:05:15.282Z,5.05
2022-10-14T01:08:29.673Z,5.04
2022-10-14T01:11:41.927Z,5.07
2022-10-14T01:14:54.968Z,5.08
2022-10-14T01:18:12.827Z,5.07
2022-10-14T01:21:26.810Z,5.06
2022-10-14T01:24:45.356Z,5.08
2022-10-14T01:28:16.385Z,5.10
2022-10-14T01:31:25.000Z,5.12
2022-10-14T01:34:37.726Z,5.12
2022-10-14T01:37:51.130Z,5.15
2022-10-14T01:41:04.489Z,5.12
2022-10-14T01:44:13.402Z,5.06
2022-10-14T01:47:22.832Z,5.06
2022-10-14T01:50:32.702Z,5.10
2022-10-14T01:53:43.670Z,5.14
2022-10-14T01:56:51.782Z,5.17
2022-10-14T01:59:59.084Z,5.20
2022-10-14T02:03:05.386Z,5.21
2022-10-14T02:06:13.120Z,5.26
2022-10-14T02:09:28.040Z,5.31
2022-10-14T02:12:46.152Z,5.34
2022-10-14T02:16:05.220Z,5.36
2022-10-14T02:19:25.937Z,5.39
2022-10-14T02:22:38.955Z,5.42
2022-10-14T02:25:48.074Z,5.46
2022-10-14T02:28:56.138Z,5.47
2022-10-14T02:32:03.386Z,5.48
2022-10-14T02:35:12.763Z,5.48
2022-10-14T02:38:20.450Z,5.47
2022-10-14T02:41:32.210Z,5.49
2022-10-14T02:44:38.479Z,5.49
2022-10-14T02:47:44.656Z,5.45
2022-10-14T02:50:50.847Z,5.46
2022-10-14T02:53:57.611Z,5.51
2022-10-14T02:57:03.828Z,5.54
2022-10-14T03:00:12.106Z,5.55
2022-10-14T03:03:18.377Z,5.56
2022-10-14T03:06:24.682Z,5.57
2022-10-14T03:09:29.231Z,5.59
2022-10-14T03:12:35.956Z,5.61
2022-10-14T03:15:42.000Z,5.61
2022-10-14T03:18:48.127Z,5.61
2022-10-14T03:21:54.153Z,5.62
2022-10-14T03:25:00.284Z,5.63
2022-10-14T03:28:06.872Z,5.66
2022-10-14T03:31:12.992Z,5.68
2022-10-14T03:34:19.114Z,5.67
2022-10-14T03:37:25.331Z,5.69
2022-10-14T03:40:31.764Z,5.71
2022-10-14T03:43:37.894Z,5.72
2022-10-14T03:46:43.951Z,5.73
2022-10-14T03:49:49.955Z,5.74
2022-10-14T03:52:56.118Z,5.75
2022-10-14T03:56:02.226Z,5.73
2022-10-14T03:59:08.986Z,5.69
2022-10-14T04:02:15.076Z,5.68
2022-10-14T04:05:21.183Z,5.70
2022-10-14T04:08:27.436Z,5.69
2022-10-14T04:11:33.678Z,5.67
2022-10-14T04:14:39.837Z,5.65
2022-10-14T04:17:45.871Z,5.67
2022-10-14T04:20:51.999Z,5.66
2022-10-14T04:23:58.126Z,5.64
2022-10-14T04:27:04.277Z,5.61
2022-10-14T04:30:12.704Z,5.58
2022-10-14T04:33:18.865Z,5.58
2022-10-14T04:36:24.963Z,5.59
2022-10-14T04:39:31.291Z,5.59
2022-10-14T04:42:35.767Z,5.59
2022-10-14T04:45:42.707Z,5.59
2022-10-14T04:48:50.365Z,5.57
2022-10-14T04:51:56.809Z,5.55
2022-10-14T04:55:03.498Z,5.53
2022-10-14T04:58:09.654Z,5.53
2022-10-14T05:01:15.821Z,5.53
2022-10-14T05:04:21.935Z,5.54
2022-10-14T05:07:28.241Z,5.57
2022-10-14T05:10:32.688Z,5.59
2022-10-14T05:13:39.056Z,5.61
2022-10-14T05:16:43.662Z,5.63
2022-10-14T05:19:49.833Z,5.66
2022-10-14T05:22:56.001Z,5.71
2022-10-14T05:26:02.137Z,5.75
2022-10-14T05:29:08.419Z,5.79
2022-10-14T05:32:12.975Z,5.82
2022-10-14T05:35:34.032Z,5.86
2022-10-14T05:38:45.751Z,5.92
2022-10-14T05:41:50.381Z,5.98
2022-10-14T05:44:56.592Z,6.04
2022-10-14T05:48:02.798Z,6.10
2022-10-14T05:51:09.218Z,6.17
2022-10-14T05:54:15.713Z,6.24
2022-10-14T05:57:21.817Z,6.32
2022-10-14T06:00:27.948Z,6.40
2022-10-14T06:03:34.359Z,6.44
2022-10-14T06:06:40.483Z,6.50
2022-10-14T06:09:46.532Z,6.56
2022-10-14T06:12:52.631Z,6.63
2022-10-14T06:15:58.768Z,6.69
2022-10-14T06:19:04.863Z,6.74
2022-10-14T06:22:11.020Z,6.80
2022-10-14T06:25:17.279Z,6.87
2022-10-14T06:28:21.765Z,6.92
2022-10-14T06:31:32.127Z,6.97
2022-10-14T06:34:38.829Z,7.05
2022-10-14T06:37:47.984Z,7.14
2022-10-14T06:40:55.520Z,7.25
2022-10-14T06:44:01.672Z,7.38
2022-10-14T06:47:09.034Z,7.49
2022-10-14T06:50:15.632Z,7.62
2022-10-14T06:53:21.887Z,7.71
2022-10-14T06:56:28.156Z,7.78
2022-10-14T06:59:32.692Z,7.84
2022-10-14T07:02:39.956Z,7.91
2022-10-14T07:05:46.110Z,7.96
2022-10-14T07:08:52.369Z,8.02
2022-10-14T07:11:56.813Z,8.09
2022-10-14T07:15:05.147Z,8.14
2022-10-14T07:18:11.547Z,8.20
2022-10-14T07:21:16.040Z,8.26
2022-10-14T07:24:22.191Z,8.31
2022-10-14T07:27:28.408Z,8.33
2022-10-14T07:30:34.611Z,8.38
2022-10-14T07:33:42.223Z,8.44
2022-10-14T07:36:48.462Z,8.51
2022-10-14T07:39:54.536Z,8.57
2022-10-14T07:43:00.642Z,8.62
2022-10-14T07:46:08.432Z,8.69
2022-10-14T07:49:16.942Z,8.79
2022-10-14T07:52:23.622Z,8.89
2022-10-14T07:55:29.728Z,8.99
2022-10-14T07:58:37.493Z,9.11
2022-10-14T08:01:47.022Z,9.22
2022-10-14T08:05:13.191Z,9.34
2022-10-14T08:08:24.408Z,9.48
2022-10-14T08:11:31.148Z,9.62
2022-10-14T08:14:37.303Z,9.80
2022-10-14T08:17:41.798Z,9.97
2022-10-14T08:20:47.918Z,10.15
2022-10-14T08:23:55.074Z,10.34
2022-10-14T08:27:01.223Z,10.56
2022-10-14T08:30:10.305Z,10.80
2022-10-14T08:33:17.627Z,11.02
2022-10-14T08:36:24.373Z,11.23
2022-10-14T08:39:30.600Z,11.41
2022-10-14T08:42:41.271Z,11.61
2022-10-14T08:45:54.357Z,11.81
2022-10-14T08:49:08.922Z,12.03
2022-10-14T08:52:18.696Z,12.24
2022-10-14T08:55:34.497Z,12.45
2022-10-14T08:58:43.689Z,12.69
2022-10-14T09:01:58.388Z,12.91
2022-10-14T09:05:05.137Z,13.11
2022-10-14T09:08:17.086Z,13.31
2022-10-14T09:11:25.309Z,13.52
2022-10-14T09:14:37.652Z,13.72
2022-10-14T09:17:50.375Z,13.92
2022-10-14T09:20:57.965Z,14.08
2022-10-14T09:24:13.478Z,14.23
2022-10-14T09:27:22.087Z,14.38
2022-10-14T09:30:32.331Z,14.56
2022-10-14T09:33:42.259Z,14.74
2022-10-14T09:40:04.181Z,15.01
2022-10-14T09:43:18.271Z,15.13
2022-10-14T09:46:24.647Z,15.17
2022-10-14T09:49:40.465Z,15.21
2022-10-14T09:52:44.970Z,15.27
2022-10-14T09:55:55.574Z,15.35
2022-10-14T09:59:03.099Z,15.44
2022-10-14T10:02:22.129Z,15.50
2022-10-14T10:05:30.613Z,15.55
2022-10-14T10:08:38.673Z,15.61
2022-10-14T10:11:44.752Z,15.68
2022-10-14T10:14:57.415Z,15.75
2022-10-14T10:18:19.434Z,15.81
2022-10-14T10:21:29.893Z,15.94
2022-10-14T10:24:36.063Z,16.03
2022-10-14T10:27:45.922Z,16.11
2022-10-14T10:31:05.701Z,16.15
2022-10-14T10:34:34.797Z,16.20
2022-10-14T10:37:50.573Z,16.24
2022-10-14T10:41:03.465Z,16.29
2022-10-14T10:44:36.447Z,16.30
2022-10-14T10:47:51.378Z,16.31
2022-10-14T10:51:01.943Z,16.33
2022-10-14T10:54:21.990Z,16.41
2022-10-14T10:57:42.843Z,16.53
2022-10-14T11:00:55.731Z,16.68
2022-10-14T11:04:18.272Z,16.77
2022-10-14T11:07:49.942Z,16.82
2022-10-14T11:11:19.887Z,16.90
2022-10-14T11:14:50.650Z,16.95
2022-10-14T11:18:03.554Z,17.00
2022-10-14T11:21:22.057Z,17.04
2022-10-14T11:24:37.422Z,17.05
2022-10-14T11:27:50.325Z,17.06
2022-10-14T11:31:02.518Z,17.06
2022-10-14T11:34:29.772Z,17.07
2022-10-14T11:37:48.524Z,17.10
2022-10-14T11:41:02.880Z,17.16
2022-10-14T11:44:16.725Z,17.20
2022-10-14T11:47:26.957Z,17.26
2022-10-14T11:50:39.418Z,17.32
2022-10-14T11:53:55.900Z,17.37
2022-10-14T11:57:06.162Z,17.42
2022-10-14T12:00:18.759Z,17.46
2022-10-14T12:03:37.773Z,17.50
2022-10-14T12:06:48.435Z,17.51
2022-10-14T12:10:00.081Z,17.52
2022-10-14T12:13:11.836Z,17.50
2022-10-14T12:16:21.327Z,17.47
2022-10-14T12:19:29.827Z,17.45
2022-10-14T12:22:36.879Z,17.41
2022-10-14T12:25:56.747Z,17.33
2022-10-14T12:29:04.169Z,17.25
2022-10-14T12:32:21.471Z,17.20
2022-10-14T12:35:51.920Z,17.21
2022-10-14T12:39:28.658Z,17.24
2022-10-14T12:42:36.611Z,17.26
2022-10-14T12:45:52.475Z,17.29
2022-10-14T12:48:59.850Z,17.34
2022-10-14T12:52:08.855Z,17.38
2022-10-14T12:55:20.105Z,17.42
2022-10-14T12:58:35.974Z,17.44
2022-10-14T13:01:45.919Z,17.41
2022-10-14T13:04:54.939Z,17.37
2022-10-14T13:08:27.006Z,17.31
2022-10-14T13:11:33.068Z,17.24
2022-10-14T13:14:59.735Z,17.16
2022-10-14T13:18:37.339Z,17.08
2022-10-14T13:21:56.184Z,16.96
2022-10-14T13:25:12.391Z,16.85
2022-10-14T13:28:28.967Z,16.70
2022-10-14T13:31:44.771Z,16.47
2022-10-14T13:34:53.022Z,16.20
2022-10-14T13:38:03.353Z,15.96
2022-10-14T13:41:16.378Z,15.77
2022-10-14T13:44:23.104Z,15.64
2022-10-14T13:47:29.517Z,15.54
2022-10-14T13:50:39.465Z,15.43
2022-10-14T13:53:55.174Z,15.36
2022-10-14T13:57:42.722Z,15.30
2022-10-14T14:00:41.494Z,15.27
2022-10-14T14:03:52.183Z,15.26
2022-10-14T14:07:24.452Z,15.22
2022-10-14T14:10:26.568Z,15.20
2022-10-14T14:13:34.943Z,15.17
2022-10-14T14:16:49.582Z,15.15
2022-10-14T14:19:57.395Z,15.09
2022-10-14T14:23:04.978Z,14.98
2022-10-14T14:26:19.055Z,14.88
2022-10-14T14:29:29.379Z,14.87
2022-10-14T14:32:37.727Z,14.91
2022-10-14T14:35:51.850Z,14.91
2022-10-14T14:38:59.564Z,14.84
2022-10-14T14:42:05.714Z,14.80
2022-10-14T14:45:18.099Z,14.80
2022-10-14T14:48:24.604Z,14.79
2022-10-14T14:51:35.111Z,14.77
2022-10-14T14:54:47.312Z,14.75
2022-10-14T14:58:01.856Z,14.74
2022-10-14T15:01:08.816Z,14.68
2022-10-14T15:04:19.531Z,14.65
2022-10-14T15:07:27.215Z,14.61
2022-10-14T15:10:33.753Z,14.55
2022-10-14T15:13:53.415Z,14.53
2022-10-14T15:17:00.165Z,14.51
2022-10-14T15:20:30.036Z,14.47
2022-10-14T15:24:00.533Z,14.44
2022-10-14T15:27:34.990Z,14.40
2022-10-14T15:30:55.767Z,14.35
2022-10-14T15:34:02.090Z,14.30
2022-10-14T15:37:12.342Z,14.26
2022-10-14T15:40:21.067Z,14.22
2022-10-14T15:43:28.749Z,14.16
2022-10-14T15:46:54.061Z,14.11
2022-10-14T15:50:00.519Z,14.04
2022-10-14T15:53:06.620Z,13.96
2022-10-14T15:56:11.541Z,13.90
2022-10-14T15:59:18.885Z,13.85
2022-10-14T16:02:30.384Z,13.69
2022-10-14T16:05:36.856Z,13.56
2022-10-14T16:08:43.558Z,13.55
2022-10-14T16:11:57.412Z,13.54
2022-10-14T16:18:14.936Z,13.50
2022-10-14T16:21:19.380Z,13.47
2022-10-14T16:24:26.812Z,13.44
2022-10-14T16:27:32.875Z,13.40
2022-10-14T16:30:37.479Z,13.38
2022-10-14T16:33:45.712Z,13.30
2022-10-14T16:36:52.755Z,13.24
2022-10-14T16:39:58.926Z,13.21
2022-10-14T16:43:05.050Z,13.19
2022-10-14T16:46:11.939Z,13.18
2022-10-14T16:49:21.060Z,13.17
2022-10-14T16:52:27.177Z,13.15
2022-10-14T16:55:32.021Z,13.13
2022-10-14T16:58:38.128Z,13.11
2022-10-14T17:01:44.489Z,13.09
2022-10-14T17:04:51.520Z,13.08
2022-10-14T17:07:57.650Z,13.06
2022-10-14T17:11:02.110Z,13.04
2022-10-14T17:14:08.417Z,13.01
2022-10-14T17:17:14.797Z,12.97
2022-10-14T17:20:22.120Z,12.91
2022-10-14T17:23:29.520Z,12.91
2022-10-14T17:26:36.535Z,12.88
2022-10-14T17:29:42.683Z,12.86
2022-10-14T17:32:47.190Z,12.84
2022-10-14T17:35:59.761Z,12.81
2022-10-14T17:39:06.170Z,12.75
2022-10-14T17:42:12.408Z,12.67
2022-10-14T17:45:19.727Z,12.67
2022-10-14T17:48:25.782Z,12.69
2022-10-14T17:51:30.341Z,12.70
2022-10-14T17:54:36.446Z,12.69
2022-10-14T17:57:41.001Z,12.68
2022-10-14T18:00:47.152Z,12.65
2022-10-14T18:03:51.809Z,12.62
2022-10-14T18:06:58.679Z,12.59
2022-10-14T18:10:04.934Z,12.58
2022-10-14T18:13:11.111Z,12.56
2022-10-14T18:16:17.510Z,12.54
2022-10-14T18:19:23.639Z,12.54
2022-10-14T18:22:28.265Z,12.53
2022-10-14T18:25:38.050Z,12.48
2022-10-14T18:28:45.912Z,12.45
2022-10-14T18:31:53.120Z,12.45
2022-10-14T18:34:59.211Z,12.43
2022-10-14T18:38:05.313Z,12.40
2022-10-14T18:41:14.445Z,12.34
2022-10-14T18:44:20.791Z,12.34
2022-10-14T18:47:27.210Z,12.35
2022-10-14T18:50:33.261Z,12.34
2022-10-14T18:53:41.676Z,12.37
2022-10-14T18:56:48.873Z,12.38
2022-10-14T18:59:55.033Z,12.38
2022-10-14T19:02:59.656Z,12.37
2022-10-14T19:06:06.902Z,12.37
2022-10-14T19:09:13.986Z,12.38
2022-10-14T19:12:34.043Z,12.39
2022-10-14T19:15:45.408Z,12.39
2022-10-14T19:18:57.079Z,12.39
2022-10-14T19:22:03.456Z,12.39
2022-10-14T19:25:08.831Z,12.38
2022-10-14T19:28:14.885Z,12.37
2022-10-14T19:31:25.043Z,12.37
2022-10-14T19:34:31.620Z,12.36
2022-10-14T19:37:37.939Z,12.36
2022-10-14T19:40:43.991Z,12.35
2022-10-14T19:43:50.303Z,12.31
2022-10-14T19:46:56.540Z,12.29
2022-10-14T19:50:02.626Z,12.29
2022-10-14T19:53:07.185Z,12.27
2022-10-14T19:56:14.672Z,12.26
2022-10-14T19:59:21.397Z,12.25
2022-10-14T20:02:27.539Z,12.25
2022-10-14T20:05:32.650Z,12.25
2022-10-14T20:08:39.396Z,12.23
2022-10-14T20:11:45.946Z,12.21
2022-10-14T20:14:52.015Z,12.19
2022-10-14T20:17:56.569Z,12.18
2022-10-14T20:21:04.374Z,12.16
2022-10-14T20:24:10.884Z,12.14
2022-10-14T20:27:17.315Z,12.11
2022-10-14T20:30:23.552Z,12.10
2022-10-14T20:33:31.730Z,12.09
2022-10-14T20:36:37.924Z,12.09
2022-10-14T20:39:42.401Z,12.09
2022-10-14T20:42:48.627Z,12.08
2022-10-14T20:45:56.344Z,12.07
2022-10-14T20:49:03.185Z,12.05
2022-10-14T20:52:10.102Z,12.03
2022-10-14T20:55:16.090Z,11.99
2022-10-14T20:58:23.219Z,11.94
2022-10-14T21:01:30.776Z,11.89
2022-10-14T21:04:37.013Z,11.86
2022-10-14T21:07:41.642Z,11.84
2022-10-14T21:10:47.699Z,11.81
2022-10-14T21:13:55.828Z,11.78
2022-10-14T21:17:02.055Z,11.77
2022-10-14T21:20:09.891Z,11.76
2022-10-14T21:23:16.120Z,11.76
2022-10-14T21:26:22.151Z,11.75
2022-10-14T21:29:28.475Z,11.74
2022-10-14T21:32:34.686Z,11.74
2022-10-14T21:35:39.187Z,11.71
2022-10-14T21:38:45.473Z,11.67
2022-10-14T21:41:52.026Z,11.64
2022-10-14T21:44:58.299Z,11.62
2022-10-14T21:48:04.565Z,11.62
2022-10-14T21:51:13.310Z,11.62
2022-10-14T21:54:19.298Z,11.62
2022-10-14T21:57:25.714Z,11.59
2022-10-14T22:00:32.140Z,11.58
2022-10-14T22:03:39.189Z,11.58
2022-10-14T22:06:45.384Z,11.58
2022-10-14T22:09:49.936Z,11.55
2022-10-14T22:12:58.453Z,11.55
2022-10-14T22:16:05.039Z,11.54
2022-10-14T22:19:12.014Z,11.52
2022-10-14T22:22:18.050Z,11.50
2022-10-14T22:25:24.007Z,11.47
2022-10-14T22:28:30.834Z,11.46
2022-10-14T22:31:37.659Z,11.46
2022-10-14T22:34:45.312Z,11.46
2022-10-14T22:37:51.662Z,11.49
2022-10-14T22:41:01.507Z,11.49
2022-10-14T22:44:08.542Z,11.48
2022-10-14T22:47:14.609Z,11.49
2022-10-14T22:50:20.892Z,11.50
2022-10-14T22:53:25.445Z,11.49
2022-10-14T22:56:32.942Z,11.48
2022-10-14T22:59:39.332Z,11.49
2022-10-14T23:02:46.481Z,11.47
2022-10-14T23:05:52.765Z,11.45
2022-10-14T23:09:00.464Z,11.45
2022-10-14T23:12:07.161Z,11.45
2022-10-14T23:15:13.845Z,11.45
2022-10-14T23:18:19.964Z,11.44
2022-10-14T23:21:25.250Z,11.45
2022-10-14T23:24:31.650Z,11.42
2022-10-14T23:27:37.903Z,11.40
2022-10-14T23:30:44.181Z,11.39
2022-10-14T23:33:49.241Z,11.37
2022-10-14T23:40:06.961Z,11.36
2022-10-14T23:43:13.028Z,11.35
2022-10-14T23:46:19.098Z,11.34
2022-10-14T23:49:26.439Z,11.32
2022-10-14T23:52:32.924Z,11.28
2022-10-14T23:55:37.355Z,11.21
2022-10-14T23:58:43.467Z,11.15
